Potosi, Missouri
Current Conditions -  °F | °C
As of 5:15 AM on Saturday 25 Oct 2014 (Local Time) from KFAM Reporting Station
Overcast Overcast  
Wind Chill: 13°   Ceiling: 4400
Heat Index: 13°   Visibility: 9mi
Dew Point: 13°   Wind: 0mph
Humidity: 100%   Direction: NA
Pressure: 30.04"   Gusts: NA
Location:  37.94°N, 90.79°W
Report Text: KFAM 251015Z AUTO 00000KT 9SM OVC044 13/13 A3004 RMK AO1
Loading
Personal Weather Stations






























Interactive Weather Map
Tropical Storm Tracking
New forecast layout! Learn more

10-Day Weather Forecast

Advertisements
Track Severe Weather on mobile